Аэропорт: Иркутск. Иркутск

ICAO: UIII

METAR:
2018/09/19 07:30
UIII 190730Z 32006MPS 9999 BKN040CB 06/05 Q1021 R30/290150 NOSIG RMK QFE721/0961
METAR:
2018/09/19 06:24
TAF UIII 190500Z 1906/2006 32007MPS 9999 -SHRA OVC011CB 
      TEMPO 1906/2006 32010G15MPS OVC007CB